Greenwood Leflore Airport
KGWO : now visible

Airfield :











YOU CAN JOIN US ON...

 
LOGIN :

Register | Disclaimer

   EN    FR    IT 

 









Legend :    VFR   Marginal VFR   IFR   Intensive IFR   Very Intensive IFR
Visi :
Ceiling :
>= 8 km
>= 3000ft
5 to 8 km
1000 to 3000 ft
1500m to 5 km
500 to 1000 ft
800 to 1500m
200 to 500 ft
< 800m
< 200 ft
Symbols :   Thunderstorms  Fog  Heavy snow  Heavy precipitations  Wind > 20 kt






- Airport Elevation : 162 ft


KGWO - Greenwood Leflore

CURRENT METAR :
  • 081853Z AUTO 18008KT 6SM -RA BR FEW019 BKN080 OVC100 22/21 A2984 RMK AO2 PK WND 17034/1828 LTG DSNT E-S RAB1754 TSB03E45 SLP104 P0038 T02170206

EXPIRED METARs :
  • 081844Z AUTO 21009KT 5SM TSRA BR FEW019 BKN080 OVC095 22/21 A2985 RMK AO2 PK WND 17034/1828 LTG DSNT NE-S RAB1754 TSB03 P0037 T02220206
  • 081836Z AUTO 19012G34KT 1SM TSRA BR FEW019 BKN031 OVC080 22/19 A2985 RMK AO2 PK WND 17034/1828 LTG DSNT ALQDS RAB1754 TSB03 P0035 T02170194
  • 081821Z AUTO 00000KT 2SM -TSRA BR SCT018 BKN027 OVC110 22/21 A2987 RMK AO2 LTG DSNT SE-SW RAB1754 TSB03 P0018 T02170206
  • 081805Z AUTO 1 3/4SM +TSRA SCT017 BKN031 OVC110 23/19 A2987 RMK AO2 VIS 3/4V4 LTG DSNT SE-W RAB1754 TSB03 P0006 T02330194
  • 081701Z AUTO 23004KT 6SM -RA SCT018 BKN090 OVC110 25/22 A2988 RMK AO2 LTG DSNT NE AND NW P0001 T02500222
  • 081601Z AUTO 21008KT 7SM BKN015 OVC020 25/23 A2989 RMK AO2 T02500228

TAF KGWO
Valid from the 08 at 18:00 until the 09 at 18:00 UTC


081722Z 0818/0918 24008G15KT 4SM TSRA BR BKN025CB
FM082000 23009KT P6SM VCTS BKN035CB
FM090200 20005KT P6SM SCT250
FM090700 24008KT P6SM VCTS SCT035CB BKN100
FM091000 34008KT P6SM VCTS BKN025CB
FM091200 01010G19KT P6SM SCT250



MET'MAP, your aeronautical weather chart ! - Copyright ORBIFLY December 2007 - Disclaimer

ORBIFLY MET'MAP TEAM :

Programming & Development : Alexandra Zaïnal
Concept & original design : Baudouin d'Aumeries
Assistance for programming : Marc-Olivier Méhu
Technical & hardware support : Manuel Goepfert

Contact : metmap@orbifly.com




SOURCES & CREDITS :

   NOAA       Earth
Advisory